sensor_id;sensor_type;location;lat;lon;timestamp;P1;durP1;ratioP1;P2;durP2;ratioP2
16892;SDS011;8563;52.242;9.098;2023-05-21T00:00:00;5.03;;;4.60;;
16892;SDS011;8563;52.242;9.098;2023-05-21T00:02:42;5.47;;;5.03;;
16892;SDS011;8563;52.242;9.098;2023-05-21T00:05:15;5.73;;;4.40;;
16892;SDS011;8563;52.242;9.098;2023-05-21T00:07:49;6.03;;;5.43;;
16892;SDS011;8563;52.242;9.098;2023-05-21T00:10:24;5.87;;;5.17;;
16892;SDS011;8563;52.242;9.098;2023-05-21T00:12:56;5.00;;;4.60;;
16892;SDS011;8563;52.242;9.098;2023-05-21T00:15:29;5.57;;;5.07;;
16892;SDS011;8563;52.242;9.098;2023-05-21T00:18:01;4.90;;;4.50;;
16892;SDS011;8563;52.242;9.098;2023-05-21T00:20:34;6.07;;;4.87;;
16892;SDS011;8563;52.242;9.098;2023-05-21T00:23:08;5.70;;;5.20;;
16892;SDS011;8563;52.242;9.098;2023-05-21T00:25:40;5.50;;;5.00;;
16892;SDS011;8563;52.242;9.098;2023-05-21T00:28:13;5.70;;;5.20;;
16892;SDS011;8563;52.242;9.098;2023-05-21T00:30:45;5.30;;;4.80;;
16892;SDS011;8563;52.242;9.098;2023-05-21T00:33:17;7.03;;;5.27;;
16892;SDS011;8563;52.242;9.098;2023-05-21T00:35:51;5.13;;;4.73;;
16892;SDS011;8563;52.242;9.098;2023-05-21T00:38:25;5.50;;;4.80;;
16892;SDS011;8563;52.242;9.098;2023-05-21T00:40:58;5.53;;;5.03;;
16892;SDS011;8563;52.242;9.098;2023-05-21T00:43:32;5.00;;;4.50;;
16892;SDS011;8563;52.242;9.098;2023-05-21T00:46:05;5.90;;;4.80;;
16892;SDS011;8563;52.242;9.098;2023-05-21T00:48:38;5.30;;;4.60;;
16892;SDS011;8563;52.242;9.098;2023-05-21T00:51:11;4.93;;;4.43;;
16892;SDS011;8563;52.242;9.098;2023-05-21T00:53:45;5.30;;;4.90;;
16892;SDS011;8563;52.242;9.098;2023-05-21T00:56:18;5.30;;;4.80;;
16892;SDS011;8563;52.242;9.098;2023-05-21T00:58:51;5.50;;;4.83;;
16892;SDS011;8563;52.242;9.098;2023-05-21T01:01:24;5.63;;;5.10;;
16892;SDS011;8563;52.242;9.098;2023-05-21T01:04:03;5.50;;;4.67;;
16892;SDS011;8563;52.242;9.098;2023-05-21T01:06:36;5.53;;;5.03;;
16892;SDS011;8563;52.242;9.098;2023-05-21T01:09:09;5.73;;;5.13;;
16892;SDS011;8563;52.242;9.098;2023-05-21T01:11:43;5.83;;;5.27;;
16892;SDS011;8563;52.242;9.098;2023-05-21T01:14:17;5.97;;;5.37;;
16892;SDS011;8563;52.242;9.098;2023-05-21T01:16:50;6.40;;;5.37;;
16892;SDS011;8563;52.242;9.098;2023-05-21T01:19:23;5.70;;;5.20;;
16892;SDS011;8563;52.242;9.098;2023-05-21T01:21:59;5.40;;;4.90;;
16892;SDS011;8563;52.242;9.098;2023-05-21T01:24:34;5.77;;;5.27;;
16892;SDS011;8563;52.242;9.098;2023-05-21T01:27:07;5.80;;;5.27;;
16892;SDS011;8563;52.242;9.098;2023-05-21T01:29:40;7.50;;;5.87;;
16892;SDS011;8563;52.242;9.098;2023-05-21T01:32:14;5.67;;;5.07;;
16892;SDS011;8563;52.242;9.098;2023-05-21T01:34:49;5.73;;;5.23;;
16892;SDS011;8563;52.242;9.098;2023-05-21T01:37:29;5.63;;;5.17;;
16892;SDS011;8563;52.242;9.098;2023-05-21T01:40:04;6.57;;;5.77;;
16892;SDS011;8563;52.242;9.098;2023-05-21T01:42:40;5.70;;;5.20;;
16892;SDS011;8563;52.242;9.098;2023-05-21T01:45:13;6.00;;;5.43;;
16892;SDS011;8563;52.242;9.098;2023-05-21T01:47:48;5.97;;;5.43;;
16892;SDS011;8563;52.242;9.098;2023-05-21T01:50:21;8.33;;;5.33;;
16892;SDS011;8563;52.242;9.098;2023-05-21T01:52:54;7.10;;;6.40;;
16892;SDS011;8563;52.242;9.098;2023-05-21T01:55:31;6.50;;;5.90;;
16892;SDS011;8563;52.242;9.098;2023-05-21T01:58:08;5.80;;;5.30;;
16892;SDS011;8563;52.242;9.098;2023-05-21T02:00:41;5.67;;;5.17;;
16892;SDS011;8563;52.242;9.098;2023-05-21T02:03:14;6.03;;;5.43;;
16892;SDS011;8563;52.242;9.098;2023-05-21T02:05:47;6.17;;;5.57;;
16892;SDS011;8563;52.242;9.098;2023-05-21T02:08:21;6.10;;;5.50;;
16892;SDS011;8563;52.242;9.098;2023-05-21T02:10:56;7.37;;;5.93;;
16892;SDS011;8563;52.242;9.098;2023-05-21T02:13:28;6.40;;;5.50;;
16892;SDS011;8563;52.242;9.098;2023-05-21T02:16:01;7.50;;;6.30;;
16892;SDS011;8563;52.242;9.098;2023-05-21T02:18:34;6.20;;;5.70;;
16892;SDS011;8563;52.242;9.098;2023-05-21T02:21:06;6.60;;;6.00;;
16892;SDS011;8563;52.242;9.098;2023-05-21T02:23:39;6.00;;;5.40;;
16892;SDS011;8563;52.242;9.098;2023-05-21T02:26:13;6.47;;;5.63;;
16892;SDS011;8563;52.242;9.098;2023-05-21T02:28:46;6.63;;;5.30;;
16892;SDS011;8563;52.242;9.098;2023-05-21T02:31:19;7.77;;;5.93;;
16892;SDS011;8563;52.242;9.098;2023-05-21T02:33:51;5.93;;;5.40;;
16892;SDS011;8563;52.242;9.098;2023-05-21T02:36:25;6.13;;;5.63;;
16892;SDS011;8563;52.242;9.098;2023-05-21T02:38:57;6.17;;;5.57;;
16892;SDS011;8563;52.242;9.098;2023-05-21T02:41:32;5.87;;;5.37;;
16892;SDS011;8563;52.242;9.098;2023-05-21T02:44:04;5.87;;;5.37;;
16892;SDS011;8563;52.242;9.098;2023-05-21T02:46:37;5.97;;;5.47;;
16892;SDS011;8563;52.242;9.098;2023-05-21T02:49:10;6.53;;;5.87;;
16892;SDS011;8563;52.242;9.098;2023-05-21T02:51:46;6.43;;;5.87;;
16892;SDS011;8563;52.242;9.098;2023-05-21T02:54:19;6.13;;;5.57;;
16892;SDS011;8563;52.242;9.098;2023-05-21T02:56:53;6.37;;;5.77;;
16892;SDS011;8563;52.242;9.098;2023-05-21T02:59:26;7.00;;;5.43;;
16892;SDS011;8563;52.242;9.098;2023-05-21T03:01:58;7.00;;;6.33;;
16892;SDS011;8563;52.242;9.098;2023-05-21T03:04:30;6.10;;;5.60;;
16892;SDS011;8563;52.242;9.098;2023-05-21T03:07:08;6.70;;;6.10;;
16892;SDS011;8563;52.242;9.098;2023-05-21T03:09:43;8.47;;;6.07;;
16892;SDS011;8563;52.242;9.098;2023-05-21T03:12:17;6.40;;;5.80;;
16892;SDS011;8563;52.242;9.098;2023-05-21T03:14:51;6.03;;;5.30;;
16892;SDS011;8563;52.242;9.098;2023-05-21T03:17:25;5.67;;;5.00;;
16892;SDS011;8563;52.242;9.098;2023-05-21T03:19:57;6.10;;;5.50;;
16892;SDS011;8563;52.242;9.098;2023-05-21T03:22:30;6.97;;;6.37;;
16892;SDS011;8563;52.242;9.098;2023-05-21T03:25:03;5.87;;;5.37;;
16892;SDS011;8563;52.242;9.098;2023-05-21T03:27:37;6.80;;;6.10;;
16892;SDS011;8563;52.242;9.098;2023-05-21T03:30:16;6.07;;;5.47;;
16892;SDS011;8563;52.242;9.098;2023-05-21T03:33:08;6.90;;;6.23;;
16892;SDS011;8563;52.242;9.098;2023-05-21T03:35:41;6.77;;;6.00;;
16892;SDS011;8563;52.242;9.098;2023-05-21T03:38:14;6.70;;;6.00;;
16892;SDS011;8563;52.242;9.098;2023-05-21T03:40:46;5.83;;;5.33;;
16892;SDS011;8563;52.242;9.098;2023-05-21T03:43:20;6.50;;;5.73;;
16892;SDS011;8563;52.242;9.098;2023-05-21T03:45:53;6.73;;;6.03;;
16892;SDS011;8563;52.242;9.098;2023-05-21T03:48:44;7.07;;;6.00;;
16892;SDS011;8563;52.242;9.098;2023-05-21T03:51:19;8.67;;;5.93;;
16892;SDS011;8563;52.242;9.098;2023-05-21T03:53:52;8.80;;;5.87;;
16892;SDS011;8563;52.242;9.098;2023-05-21T03:56:25;6.07;;;5.53;;
16892;SDS011;8563;52.242;9.098;2023-05-21T03:58:59;5.70;;;5.20;;
16892;SDS011;8563;52.242;9.098;2023-05-21T04:01:31;8.70;;;6.80;;
16892;SDS011;8563;52.242;9.098;2023-05-21T04:04:05;6.33;;;5.73;;
16892;SDS011;8563;52.242;9.098;2023-05-21T04:06:37;5.63;;;5.13;;
16892;SDS011;8563;52.242;9.098;2023-05-21T04:09:12;6.03;;;5.43;;
16892;SDS011;8563;52.242;9.098;2023-05-21T04:11:46;6.13;;;5.20;;
16892;SDS011;8563;52.242;9.098;2023-05-21T04:14:20;7.90;;;5.07;;
16892;SDS011;8563;52.242;9.098;2023-05-21T04:16:54;6.17;;;5.53;;
16892;SDS011;8563;52.242;9.098;2023-05-21T04:19:27;6.30;;;5.63;;
16892;SDS011;8563;52.242;9.098;2023-05-21T04:22:00;6.87;;;5.50;;
16892;SDS011;8563;52.242;9.098;2023-05-21T04:24:33;6.87;;;4.83;;
16892;SDS011;8563;52.242;9.098;2023-05-21T04:27:17;6.20;;;5.60;;
16892;SDS011;8563;52.242;9.098;2023-05-21T04:29:51;6.27;;;5.27;;
16892;SDS011;8563;52.242;9.098;2023-05-21T04:32:26;5.43;;;4.90;;
16892;SDS011;8563;52.242;9.098;2023-05-21T04:35:00;5.67;;;5.17;;
16892;SDS011;8563;52.242;9.098;2023-05-21T04:37:33;7.53;;;5.53;;
16892;SDS011;8563;52.242;9.098;2023-05-21T04:40:06;5.63;;;5.13;;
16892;SDS011;8563;52.242;9.098;2023-05-21T04:42:39;5.83;;;5.30;;
16892;SDS011;8563;52.242;9.098;2023-05-21T04:45:13;5.77;;;5.23;;
16892;SDS011;8563;52.242;9.098;2023-05-21T04:47:48;5.93;;;5.27;;
16892;SDS011;8563;52.242;9.098;2023-05-21T04:50:21;6.10;;;5.40;;
16892;SDS011;8563;52.242;9.098;2023-05-21T04:52:54;6.07;;;5.27;;
16892;SDS011;8563;52.242;9.098;2023-05-21T04:55:27;5.77;;;5.27;;
16892;SDS011;8563;52.242;9.098;2023-05-21T04:58:00;6.47;;;5.87;;
16892;SDS011;8563;52.242;9.098;2023-05-21T05:00:34;5.80;;;5.30;;
16892;SDS011;8563;52.242;9.098;2023-05-21T05:03:08;6.40;;;5.80;;
16892;SDS011;8563;52.242;9.098;2023-05-21T05:05:40;5.90;;;5.27;;
16892;SDS011;8563;52.242;9.098;2023-05-21T05:08:13;5.93;;;5.43;;
16892;SDS011;8563;52.242;9.098;2023-05-21T05:10:46;8.00;;;5.80;;
16892;SDS011;8563;52.242;9.098;2023-05-21T05:13:19;8.10;;;5.67;;
16892;SDS011;8563;52.242;9.098;2023-05-21T05:15:52;5.70;;;5.20;;
16892;SDS011;8563;52.242;9.098;2023-05-21T05:18:26;6.77;;;5.00;;
16892;SDS011;8563;52.242;9.098;2023-05-21T05:20:59;5.80;;;5.23;;
16892;SDS011;8563;52.242;9.098;2023-05-21T05:23:31;6.70;;;5.63;;
16892;SDS011;8563;52.242;9.098;2023-05-21T05:26:03;5.90;;;5.30;;
16892;SDS011;8563;52.242;9.098;2023-05-21T05:28:36;6.60;;;5.50;;
16892;SDS011;8563;52.242;9.098;2023-05-21T05:31:10;8.87;;;5.70;;
16892;SDS011;8563;52.242;9.098;2023-05-21T05:33:42;5.57;;;4.70;;
16892;SDS011;8563;52.242;9.098;2023-05-21T05:36:15;5.53;;;5.00;;
16892;SDS011;8563;52.242;9.098;2023-05-21T05:38:48;6.00;;;5.50;;
16892;SDS011;8563;52.242;9.098;2023-05-21T05:41:21;6.87;;;6.17;;
16892;SDS011;8563;52.242;9.098;2023-05-21T05:43:54;7.33;;;5.90;;
16892;SDS011;8563;52.242;9.098;2023-05-21T05:46:30;6.00;;;5.50;;
16892;SDS011;8563;52.242;9.098;2023-05-21T05:49:03;7.50;;;5.67;;
16892;SDS011;8563;52.242;9.098;2023-05-21T05:51:35;6.80;;;5.60;;
16892;SDS011;8563;52.242;9.098;2023-05-21T05:54:08;6.57;;;5.77;;
16892;SDS011;8563;52.242;9.098;2023-05-21T05:56:40;6.70;;;5.50;;
16892;SDS011;8563;52.242;9.098;2023-05-21T05:59:12;6.73;;;5.40;;
16892;SDS011;8563;52.242;9.098;2023-05-21T06:01:52;6.47;;;5.87;;
16892;SDS011;8563;52.242;9.098;2023-05-21T06:04:24;6.00;;;5.40;;
16892;SDS011;8563;52.242;9.098;2023-05-21T06:06:59;7.63;;;6.03;;
16892;SDS011;8563;52.242;9.098;2023-05-21T06:09:31;7.07;;;5.93;;
16892;SDS011;8563;52.242;9.098;2023-05-21T06:12:04;7.40;;;6.40;;
16892;SDS011;8563;52.242;9.098;2023-05-21T06:14:37;7.37;;;5.53;;
16892;SDS011;8563;52.242;9.098;2023-05-21T06:17:11;5.90;;;5.33;;
16892;SDS011;8563;52.242;9.098;2023-05-21T06:19:43;8.23;;;5.87;;
16892;SDS011;8563;52.242;9.098;2023-05-21T06:22:16;5.93;;;5.17;;
16892;SDS011;8563;52.242;9.098;2023-05-21T06:24:49;5.80;;;5.30;;
16892;SDS011;8563;52.242;9.098;2023-05-21T06:27:21;5.93;;;5.40;;
16892;SDS011;8563;52.242;9.098;2023-05-21T06:29:53;7.50;;;5.70;;
16892;SDS011;8563;52.242;9.098;2023-05-21T06:32:28;6.37;;;5.50;;
16892;SDS011;8563;52.242;9.098;2023-05-21T06:35:01;6.50;;;5.47;;
16892;SDS011;8563;52.242;9.098;2023-05-21T06:37:33;6.23;;;5.53;;
16892;SDS011;8563;52.242;9.098;2023-05-21T06:40:06;7.17;;;6.47;;
16892;SDS011;8563;52.242;9.098;2023-05-21T06:42:39;8.70;;;6.13;;
16892;SDS011;8563;52.242;9.098;2023-05-21T06:45:45;6.33;;;5.67;;
16892;SDS011;8563;52.242;9.098;2023-05-21T06:48:31;6.57;;;5.83;;
16892;SDS011;8563;52.242;9.098;2023-05-21T06:51:04;7.20;;;5.60;;
16892;SDS011;8563;52.242;9.098;2023-05-21T06:53:37;6.50;;;5.90;;
16892;SDS011;8563;52.242;9.098;2023-05-21T06:56:09;7.17;;;6.00;;
16892;SDS011;8563;52.242;9.098;2023-05-21T06:58:45;5.93;;;5.10;;
16892;SDS011;8563;52.242;9.098;2023-05-21T07:01:19;6.33;;;5.73;;
16892;SDS011;8563;52.242;9.098;2023-05-21T07:03:53;6.73;;;6.03;;
16892;SDS011;8563;52.242;9.098;2023-05-21T07:06:26;7.77;;;5.77;;
16892;SDS011;8563;52.242;9.098;2023-05-21T07:08:59;9.30;;;6.53;;
16892;SDS011;8563;52.242;9.098;2023-05-21T07:11:33;7.00;;;6.30;;
16892;SDS011;8563;52.242;9.098;2023-05-21T07:14:07;6.30;;;5.63;;
16892;SDS011;8563;52.242;9.098;2023-05-21T07:16:40;6.93;;;5.80;;
16892;SDS011;8563;52.242;9.098;2023-05-21T07:19:15;7.73;;;6.50;;
16892;SDS011;8563;52.242;9.098;2023-05-21T07:21:48;7.10;;;6.40;;
16892;SDS011;8563;52.242;9.098;2023-05-21T07:24:20;7.23;;;6.43;;
16892;SDS011;8563;52.242;9.098;2023-05-21T07:26:53;8.33;;;6.03;;
16892;SDS011;8563;52.242;9.098;2023-05-21T07:29:25;8.13;;;7.33;;
16892;SDS011;8563;52.242;9.098;2023-05-21T07:31:58;8.27;;;6.27;;
16892;SDS011;8563;52.242;9.098;2023-05-21T07:34:32;7.07;;;6.33;;
16892;SDS011;8563;52.242;9.098;2023-05-21T07:37:05;8.90;;;6.93;;
16892;SDS011;8563;52.242;9.098;2023-05-21T07:39:38;8.30;;;6.90;;
16892;SDS011;8563;52.242;9.098;2023-05-21T07:42:10;7.47;;;6.50;;
16892;SDS011;8563;52.242;9.098;2023-05-21T07:44:44;8.03;;;6.90;;
16892;SDS011;8563;52.242;9.098;2023-05-21T07:47:16;7.27;;;6.50;;
16892;SDS011;8563;52.242;9.098;2023-05-21T07:49:50;8.10;;;7.07;;
16892;SDS011;8563;52.242;9.098;2023-05-21T07:52:23;9.50;;;7.90;;
16892;SDS011;8563;52.242;9.098;2023-05-21T07:54:55;8.27;;;7.47;;
16892;SDS011;8563;52.242;9.098;2023-05-21T07:57:29;8.37;;;7.20;;
16892;SDS011;8563;52.242;9.098;2023-05-21T08:00:05;7.60;;;6.87;;
16892;SDS011;8563;52.242;9.098;2023-05-21T08:02:45;9.10;;;7.70;;
16892;SDS011;8563;52.242;9.098;2023-05-21T08:05:20;10.50;;;7.88;;
16892;SDS011;8563;52.242;9.098;2023-05-21T08:07:54;8.05;;;7.07;;
16892;SDS011;8563;52.242;9.098;2023-05-21T08:10:26;9.23;;;7.88;;
16892;SDS011;8563;52.242;9.098;2023-05-21T08:12:59;9.07;;;8.18;;
16892;SDS011;8563;52.242;9.098;2023-05-21T08:15:32;8.75;;;7.45;;
16892;SDS011;8563;52.242;9.098;2023-05-21T08:18:04;9.25;;;8.35;;
16892;SDS011;8563;52.242;9.098;2023-05-21T08:20:39;9.32;;;8.43;;
16892;SDS011;8563;52.242;9.098;2023-05-21T08:23:12;9.77;;;8.88;;
16892;SDS011;8563;52.242;9.098;2023-05-21T08:25:51;11.38;;;9.40;;
16892;SDS011;8563;52.242;9.098;2023-05-21T08:28:24;10.25;;;9.25;;
16892;SDS011;8563;52.242;9.098;2023-05-21T08:30:58;10.75;;;9.75;;
16892;SDS011;8563;52.242;9.098;2023-05-21T08:33:34;10.10;;;9.10;;
16892;SDS011;8563;52.242;9.098;2023-05-21T08:36:10;11.02;;;9.77;;
16892;SDS011;8563;52.242;9.098;2023-05-21T08:38:50;9.85;;;8.85;;
16892;SDS011;8563;52.242;9.098;2023-05-21T08:41:35;10.80;;;9.65;;
16892;SDS011;8563;52.242;9.098;2023-05-21T08:44:10;10.15;;;9.15;;
16892;SDS011;8563;52.242;9.098;2023-05-21T08:46:43;10.40;;;9.40;;
16892;SDS011;8563;52.242;9.098;2023-05-21T08:49:17;9.73;;;8.45;;
16892;SDS011;8563;52.242;9.098;2023-05-21T08:51:52;8.65;;;7.85;;
16892;SDS011;8563;52.242;9.098;2023-05-21T08:54:25;9.55;;;8.55;;
16892;SDS011;8563;52.242;9.098;2023-05-21T08:56:58;10.73;;;9.15;;
16892;SDS011;8563;52.242;9.098;2023-05-21T08:59:32;9.30;;;8.40;;
16892;SDS011;8563;52.242;9.098;2023-05-21T09:02:06;12.23;;;10.90;;
16892;SDS011;8563;52.242;9.098;2023-05-21T09:04:41;11.75;;;10.75;;
16892;SDS011;8563;52.242;9.098;2023-05-21T09:07:19;12.02;;;10.73;;
16892;SDS011;8563;52.242;9.098;2023-05-21T09:10:11;12.55;;;10.07;;
16892;SDS011;8563;52.242;9.098;2023-05-21T09:12:44;11.07;;;9.45;;
16892;SDS011;8563;52.242;9.098;2023-05-21T09:15:18;13.25;;;11.15;;
16892;SDS011;8563;52.242;9.098;2023-05-21T09:17:51;11.63;;;10.25;;
16892;SDS011;8563;52.242;9.098;2023-05-21T09:20:40;11.85;;;10.70;;
16892;SDS011;8563;52.242;9.098;2023-05-21T09:23:15;11.30;;;10.30;;
16892;SDS011;8563;52.242;9.098;2023-05-21T09:25:49;13.88;;;11.50;;
16892;SDS011;8563;52.242;9.098;2023-05-21T09:28:34;13.15;;;10.75;;
16892;SDS011;8563;52.242;9.098;2023-05-21T09:31:06;11.60;;;10.50;;
16892;SDS011;8563;52.242;9.098;2023-05-21T09:33:44;12.93;;;11.52;;
16892;SDS011;8563;52.242;9.098;2023-05-21T09:36:18;10.55;;;9.55;;
16892;SDS011;8563;52.242;9.098;2023-05-21T09:38:52;12.80;;;11.50;;
16892;SDS011;8563;52.242;9.098;2023-05-21T09:41:31;11.43;;;10.25;;
16892;SDS011;8563;52.242;9.098;2023-05-21T09:44:04;12.70;;;11.52;;
16892;SDS011;8563;52.242;9.098;2023-05-21T09:46:39;13.05;;;11.65;;
16892;SDS011;8563;52.242;9.098;2023-05-21T09:49:20;12.68;;;11.13;;
16892;SDS011;8563;52.242;9.098;2023-05-21T09:51:54;12.60;;;11.30;;
16892;SDS011;8563;52.242;9.098;2023-05-21T09:54:31;13.32;;;11.93;;
16892;SDS011;8563;52.242;9.098;2023-05-21T09:57:03;13.40;;;12.02;;
16892;SDS011;8563;52.242;9.098;2023-05-21T09:59:36;11.32;;;10.35;;
16892;SDS011;8563;52.242;9.098;2023-05-21T10:02:14;13.35;;;12.15;;
16892;SDS011;8563;52.242;9.098;2023-05-21T10:04:47;14.82;;;13.27;;
16892;SDS011;8563;52.242;9.098;2023-05-21T10:07:20;11.75;;;10.65;;
16892;SDS011;8563;52.242;9.098;2023-05-21T10:09:56;16.20;;;12.00;;
16892;SDS011;8563;52.242;9.098;2023-05-21T10:12:29;13.88;;;12.40;;
16892;SDS011;8563;52.242;9.098;2023-05-21T10:15:02;15.52;;;13.90;;
16892;SDS011;8563;52.242;9.098;2023-05-21T10:17:35;14.90;;;13.50;;
16892;SDS011;8563;52.242;9.098;2023-05-21T10:20:09;14.35;;;12.88;;
16892;SDS011;8563;52.242;9.098;2023-05-21T10:22:42;12.90;;;11.73;;
16892;SDS011;8563;52.242;9.098;2023-05-21T10:25:16;15.02;;;12.43;;
16892;SDS011;8563;52.242;9.098;2023-05-21T10:27:50;14.38;;;12.88;;
16892;SDS011;8563;52.242;9.098;2023-05-21T10:30:23;13.95;;;12.45;;
16892;SDS011;8563;52.242;9.098;2023-05-21T10:32:55;14.00;;;12.60;;
16892;SDS011;8563;52.242;9.098;2023-05-21T10:35:28;15.07;;;13.60;;
16892;SDS011;8563;52.242;9.098;2023-05-21T10:38:01;14.80;;;13.27;;
16892;SDS011;8563;52.242;9.098;2023-05-21T10:40:36;14.52;;;13.23;;
16892;SDS011;8563;52.242;9.098;2023-05-21T10:43:12;13.45;;;12.18;;
16892;SDS011;8563;52.242;9.098;2023-05-21T10:45:52;14.65;;;13.25;;
16892;SDS011;8563;52.242;9.098;2023-05-21T10:48:32;15.27;;;13.88;;
16892;SDS011;8563;52.242;9.098;2023-05-21T10:51:09;14.27;;;12.73;;
16892;SDS011;8563;52.242;9.098;2023-05-21T10:53:48;12.65;;;11.55;;
16892;SDS011;8563;52.242;9.098;2023-05-21T10:56:29;12.30;;;11.18;;
16892;SDS011;8563;52.242;9.098;2023-05-21T10:59:09;14.00;;;12.68;;
16892;SDS011;8563;52.242;9.098;2023-05-21T11:01:44;13.63;;;12.23;;
16892;SDS011;8563;52.242;9.098;2023-05-21T11:04:20;12.70;;;11.40;;
16892;SDS011;8563;52.242;9.098;2023-05-21T11:06:53;13.48;;;12.25;;
16892;SDS011;8563;52.242;9.098;2023-05-21T11:09:25;13.48;;;12.23;;
16892;SDS011;8563;52.242;9.098;2023-05-21T11:11:59;14.98;;;13.52;;
16892;SDS011;8563;52.242;9.098;2023-05-21T11:14:35;13.98;;;12.68;;
16892;SDS011;8563;52.242;9.098;2023-05-21T11:17:09;15.02;;;13.63;;
16892;SDS011;8563;52.242;9.098;2023-05-21T11:19:43;12.95;;;11.80;;
16892;SDS011;8563;52.242;9.098;2023-05-21T11:22:20;13.48;;;12.27;;
16892;SDS011;8563;52.242;9.098;2023-05-21T11:24:54;12.13;;;11.02;;
16892;SDS011;8563;52.242;9.098;2023-05-21T11:27:32;14.13;;;12.93;;
16892;SDS011;8563;52.242;9.098;2023-05-21T11:30:05;13.90;;;12.57;;
16892;SDS011;8563;52.242;9.098;2023-05-21T11:32:38;16.33;;;14.75;;
16892;SDS011;8563;52.242;9.098;2023-05-21T11:35:12;16.25;;;14.75;;
16892;SDS011;8563;52.242;9.098;2023-05-21T11:37:45;15.95;;;14.45;;
16892;SDS011;8563;52.242;9.098;2023-05-21T11:40:23;13.88;;;12.48;;
16892;SDS011;8563;52.242;9.098;2023-05-21T11:42:58;15.63;;;14.18;;
16892;SDS011;8563;52.242;9.098;2023-05-21T11:45:31;15.48;;;13.88;;
16892;SDS011;8563;52.242;9.098;2023-05-21T11:48:04;14.55;;;13.05;;
16892;SDS011;8563;52.242;9.098;2023-05-21T11:50:37;13.85;;;12.57;;
16892;SDS011;8563;52.242;9.098;2023-05-21T11:53:11;14.38;;;12.95;;
16892;SDS011;8563;52.242;9.098;2023-05-21T11:55:43;14.75;;;13.43;;
16892;SDS011;8563;52.242;9.098;2023-05-21T11:58:19;13.65;;;12.38;;
16892;SDS011;8563;52.242;9.098;2023-05-21T12:00:52;13.70;;;12.35;;
16892;SDS011;8563;52.242;9.098;2023-05-21T12:03:24;13.13;;;11.95;;
16892;SDS011;8563;52.242;9.098;2023-05-21T12:06:03;14.93;;;13.38;;
16892;SDS011;8563;52.242;9.098;2023-05-21T12:08:36;14.57;;;13.18;;
16892;SDS011;8563;52.242;9.098;2023-05-21T12:11:08;15.80;;;14.27;;
16892;SDS011;8563;52.242;9.098;2023-05-21T12:13:42;14.35;;;13.05;;
16892;SDS011;8563;52.242;9.098;2023-05-21T12:16:15;13.35;;;12.07;;
16892;SDS011;8563;52.242;9.098;2023-05-21T12:18:48;14.65;;;13.00;;
16892;SDS011;8563;52.242;9.098;2023-05-21T12:21:21;13.70;;;12.50;;
16892;SDS011;8563;52.242;9.098;2023-05-21T12:23:53;14.23;;;13.00;;
16892;SDS011;8563;52.242;9.098;2023-05-21T12:26:26;14.90;;;13.35;;
16892;SDS011;8563;52.242;9.098;2023-05-21T12:29:00;13.60;;;12.30;;
16892;SDS011;8563;52.242;9.098;2023-05-21T12:31:45;14.50;;;13.20;;
16892;SDS011;8563;52.242;9.098;2023-05-21T12:34:40;13.95;;;12.65;;
16892;SDS011;8563;52.242;9.098;2023-05-21T12:37:14;13.07;;;11.98;;
16892;SDS011;8563;52.242;9.098;2023-05-21T12:39:47;12.55;;;11.43;;
16892;SDS011;8563;52.242;9.098;2023-05-21T12:42:23;13.63;;;12.32;;
16892;SDS011;8563;52.242;9.098;2023-05-21T12:44:58;13.32;;;12.18;;
16892;SDS011;8563;52.242;9.098;2023-05-21T12:47:30;13.63;;;12.52;;
16892;SDS011;8563;52.242;9.098;2023-05-21T12:50:03;13.48;;;12.18;;
16892;SDS011;8563;52.242;9.098;2023-05-21T12:52:40;14.20;;;12.70;;
16892;SDS011;8563;52.242;9.098;2023-05-21T12:55:13;13.10;;;11.98;;
16892;SDS011;8563;52.242;9.098;2023-05-21T12:57:46;13.13;;;11.88;;
16892;SDS011;8563;52.242;9.098;2023-05-21T13:00:23;12.73;;;11.52;;
16892;SDS011;8563;52.242;9.098;2023-05-21T13:02:55;14.57;;;13.18;;
16892;SDS011;8563;52.242;9.098;2023-05-21T13:05:30;13.27;;;12.18;;
16892;SDS011;8563;52.242;9.098;2023-05-21T13:08:02;13.57;;;12.18;;
16892;SDS011;8563;52.242;9.098;2023-05-21T13:10:34;13.77;;;12.60;;
16892;SDS011;8563;52.242;9.098;2023-05-21T13:13:07;11.88;;;10.95;;
16892;SDS011;8563;52.242;9.098;2023-05-21T13:15:41;13.32;;;12.13;;
16892;SDS011;8563;52.242;9.098;2023-05-21T13:18:14;12.73;;;11.52;;
16892;SDS011;8563;52.242;9.098;2023-05-21T13:20:46;13.13;;;11.93;;
16892;SDS011;8563;52.242;9.098;2023-05-21T13:23:18;13.68;;;12.38;;
16892;SDS011;8563;52.242;9.098;2023-05-21T13:25:51;13.32;;;12.13;;
16892;SDS011;8563;52.242;9.098;2023-05-21T13:28:23;12.68;;;11.65;;
16892;SDS011;8563;52.242;9.098;2023-05-21T13:30:57;13.70;;;12.38;;
16892;SDS011;8563;52.242;9.098;2023-05-21T13:33:30;13.07;;;11.98;;
16892;SDS011;8563;52.242;9.098;2023-05-21T13:36:02;12.88;;;11.68;;
16892;SDS011;8563;52.242;9.098;2023-05-21T13:38:35;12.95;;;11.85;;
16892;SDS011;8563;52.242;9.098;2023-05-21T13:41:07;14.70;;;12.63;;
16892;SDS011;8563;52.242;9.098;2023-05-21T13:43:40;13.95;;;12.75;;
16892;SDS011;8563;52.242;9.098;2023-05-21T13:46:15;13.07;;;11.85;;
16892;SDS011;8563;52.242;9.098;2023-05-21T13:48:47;13.45;;;12.05;;
16892;SDS011;8563;52.242;9.098;2023-05-21T13:51:20;13.20;;;12.07;;
16892;SDS011;8563;52.242;9.098;2023-05-21T13:53:52;13.45;;;12.10;;
16892;SDS011;8563;52.242;9.098;2023-05-21T13:56:25;12.73;;;11.63;;
16892;SDS011;8563;52.242;9.098;2023-05-21T13:58:57;13.35;;;11.48;;
16892;SDS011;8563;52.242;9.098;2023-05-21T14:01:31;13.32;;;12.13;;
16892;SDS011;8563;52.242;9.098;2023-05-21T14:04:04;12.95;;;11.82;;
16892;SDS011;8563;52.242;9.098;2023-05-21T14:06:37;12.75;;;11.57;;
16892;SDS011;8563;52.242;9.098;2023-05-21T14:09:10;12.65;;;11.40;;
16892;SDS011;8563;52.242;9.098;2023-05-21T14:11:43;14.88;;;11.43;;
16892;SDS011;8563;52.242;9.098;2023-05-21T14:14:15;14.18;;;12.85;;
16892;SDS011;8563;52.242;9.098;2023-05-21T14:16:50;12.25;;;11.07;;
16892;SDS011;8563;52.242;9.098;2023-05-21T14:19:23;12.45;;;11.43;;
16892;SDS011;8563;52.242;9.098;2023-05-21T14:21:55;16.30;;;11.15;;
16892;SDS011;8563;52.242;9.098;2023-05-21T14:24:29;12.50;;;11.20;;
16892;SDS011;8563;52.242;9.098;2023-05-21T14:27:01;12.57;;;11.45;;
16892;SDS011;8563;52.242;9.098;2023-05-21T14:29:34;12.65;;;11.27;;
16892;SDS011;8563;52.242;9.098;2023-05-21T14:32:08;12.98;;;11.88;;
16892;SDS011;8563;52.242;9.098;2023-05-21T14:34:40;13.13;;;11.73;;
16892;SDS011;8563;52.242;9.098;2023-05-21T14:37:13;13.07;;;11.77;;
16892;SDS011;8563;52.242;9.098;2023-05-21T14:39:45;13.23;;;12.05;;
16892;SDS011;8563;52.242;9.098;2023-05-21T14:42:18;12.80;;;11.70;;
16892;SDS011;8563;52.242;9.098;2023-05-21T14:44:51;13.15;;;11.73;;
16892;SDS011;8563;52.242;9.098;2023-05-21T14:47:25;12.80;;;11.30;;
16892;SDS011;8563;52.242;9.098;2023-05-21T14:49:57;12.13;;;11.10;;
16892;SDS011;8563;52.242;9.098;2023-05-21T14:52:30;13.30;;;12.07;;
16892;SDS011;8563;52.242;9.098;2023-05-21T14:55:02;12.75;;;11.23;;
16892;SDS011;8563;52.242;9.098;2023-05-21T14:57:35;12.88;;;11.68;;
16892;SDS011;8563;52.242;9.098;2023-05-21T15:00:08;12.40;;;11.23;;
16892;SDS011;8563;52.242;9.098;2023-05-21T15:02:43;12.07;;;11.07;;
16892;SDS011;8563;52.242;9.098;2023-05-21T15:05:16;12.35;;;11.13;;
16892;SDS011;8563;52.242;9.098;2023-05-21T15:07:49;12.98;;;11.68;;
16892;SDS011;8563;52.242;9.098;2023-05-21T15:10:21;12.38;;;11.27;;
16892;SDS011;8563;52.242;9.098;2023-05-21T15:12:54;11.77;;;10.80;;
16892;SDS011;8563;52.242;9.098;2023-05-21T15:15:26;12.50;;;11.30;;
16892;SDS011;8563;52.242;9.098;2023-05-21T15:18:00;12.30;;;11.15;;
16892;SDS011;8563;52.242;9.098;2023-05-21T15:20:32;11.60;;;10.70;;
16892;SDS011;8563;52.242;9.098;2023-05-21T15:23:05;12.70;;;11.60;;
16892;SDS011;8563;52.242;9.098;2023-05-21T15:25:38;12.18;;;10.98;;
16892;SDS011;8563;52.242;9.098;2023-05-21T15:28:10;12.50;;;11.40;;
16892;SDS011;8563;52.242;9.098;2023-05-21T15:30:43;11.95;;;10.75;;